Time;durP1;ratioP1;P1;durP2;ratioP2;P2;SDS_P1;SDS_P2;PMS_P1;PMS_P2;Temp;Humidity;BMP_temperature;BMP_pressure;BME280_temperature;BME280_humidity;BME280_pressure;Samples;Min_cycle;Max_cycle;Signal;HPM_P1;HPM_P2
2021/12/09 00:00:11;;;;;;;;;;;;;;;13.77;88.19;99056.91;5004963;28;20371;-76
2021/12/09 00:02:37;;;;;;;;;;;;;;;13.17;75.38;99024.56;5000192;28;20015;-75
2021/12/09 00:05:02;;;;;;;;;;;;;;;12.84;76.19;99026.75;4984759;28;19968;-75
2021/12/09 00:07:28;;;;;;;;;;;;;;;12.45;78.81;99021.31;4980164;28;19968;-76
2021/12/09 00:09:54;;;;;;;;;;;;;;;12.10;80.96;99034.16;4980057;28;19937;-75
2021/12/09 00:12:21;;;;;;;;;;;;;;;11.87;82.94;99017.84;4980281;28;19918;-76
2021/12/09 00:14:47;;;;;;;;;;;;;;;11.75;84.42;98993.16;4979973;28;19917;-75
2021/12/09 00:17:12;;;;;;;;;;;;;;;11.61;86.18;99023.78;4980047;28;19925;-77
2021/12/09 00:19:38;;;;;;;;;;;;;;;11.48;88.53;98996.34;4980650;28;19918;-77
2021/12/09 00:22:04;;;;;;;;;;;;;;;11.31;90.72;98977.63;4980281;28;19924;-76
2021/12/09 00:24:30;;;;;;;;;;;;;;;11.31;91.50;98980.41;4979911;28;19925;-75
2021/12/09 00:26:55;;;;;;;;;;;;;;;11.31;92.18;98966.50;4979465;28;20000;-75
2021/12/09 00:29:20;;;;;;;;;;;;;;;11.33;92.72;98963.31;4978821;28;19956;-75
2021/12/09 00:31:48;;;;;;;;;;;;;;;11.41;93.13;98951.78;4979891;28;19968;-75
2021/12/09 00:34:13;;;;;;;;;;;;;;;11.39;93.69;98948.59;4979943;28;20270;-75
2021/12/09 00:36:43;;;;;;;;;;;;;;;11.43;94.55;98943.81;4979840;28;19973;-75
2021/12/09 00:39:09;;;;;;;;;;;;;;;11.51;94.68;98937.06;4979536;28;19921;-76
2021/12/09 00:41:35;;;;;;;;;;;;;;;11.63;94.35;98955.34;4979593;28;19981;-75
2021/12/09 00:44:01;;;;;;;;;;;;;;;11.73;94.52;98964.91;4979901;28;19918;-75
2021/12/09 00:46:26;;;;;;;;;;;;;;;11.83;94.77;98978.06;4996839;28;19922;-75
2021/12/09 00:48:52;;;;;;;;;;;;;;;11.90;94.24;98972.44;4979958;28;19924;-76
2021/12/09 00:51:17;;;;;;;;;;;;;;;11.68;82.83;98968.88;4979684;28;19917;-76
2021/12/09 00:53:42;;;;;;;;;;;;;;;11.73;83.17;98953.75;4997311;28;19925;-77
2021/12/09 00:56:09;;;;;;;;;;;;;;;11.82;84.04;98973.66;4978956;28;19953;-75
2021/12/09 00:58:35;;;;;;;;;;;;;;;11.91;86.63;98987.97;4996497;28;19918;-77
2021/12/09 01:01:01;;;;;;;;;;;;;;;11.91;86.50;98982.41;4979928;28;19925;-78
2021/12/09 01:03:26;;;;;;;;;;;;;;;11.97;86.29;98977.22;4981122;28;19918;-77
2021/12/09 01:05:52;;;;;;;;;;;;;;;11.97;85.62;98980.78;4998715;28;20430;-76
2021/12/09 01:08:20;;;;;;;;;;;;;;;11.90;84.35;98975.25;4999277;28;19917;-77
2021/12/09 01:10:45;;;;;;;;;;;;;;;11.89;81.35;98979.22;4998881;28;20311;-77
2021/12/09 01:13:12;;;;;;;;;;;;;;;11.92;81.56;99009.06;4998511;28;19918;-76
2021/12/09 01:15:37;;;;;;;;;;;;;;;11.95;83.13;99013.84;4998544;28;19917;-76
2021/12/09 01:18:03;;;;;;;;;;;;;;;11.85;84.32;98995.16;4998229;28;19918;-75
2021/12/09 01:20:28;;;;;;;;;;;;;;;11.70;85.17;99010.25;4998278;28;19921;-75
2021/12/09 01:22:55;;;;;;;;;;;;;;;11.54;86.01;99014.25;5015676;28;19921;-77
2021/12/09 01:25:22;;;;;;;;;;;;;;;11.44;86.90;99023.38;4998167;28;19917;-77
2021/12/09 01:27:49;;;;;;;;;;;;;;;11.32;86.48;99018.22;4998033;28;19917;-77
2021/12/09 01:30:16;;;;;;;;;;;;;;;11.20;87.98;99024.16;4998646;28;19983;-77
2021/12/09 01:32:48;;;;;;;;;;;;;;;11.09;89.44;99013.00;4998481;28;20280;-77
2021/12/09 01:35:14;;;;;;;;;;;;;;;11.04;89.82;99023.72;4997922;28;19924;-77
2021/12/09 01:37:40;;;;;;;;;;;;;;;11.04;91.30;99013.41;4997932;28;19918;-77
2021/12/09 01:40:07;;;;;;;;;;;;;;;10.98;92.09;99003.84;4998159;28;19917;-76
2021/12/09 01:42:32;;;;;;;;;;;;;;;10.88;92.55;98999.84;4998124;28;19980;-76
2021/12/09 01:44:57;;;;;;;;;;;;;;;10.90;93.63;98997.44;4998095;28;20319;-75
2021/12/09 01:47:23;;;;;;;;;;;;;;;10.89;93.73;98995.84;4997838;28;19922;-76
2021/12/09 01:49:49;;;;;;;;;;;;;;;10.87;94.26;98995.47;4998333;28;19921;-76
2021/12/09 01:52:14;;;;;;;;;;;;;;;10.84;93.89;98984.31;4998047;28;20004;-76
2021/12/09 01:54:40;;;;;;;;;;;;;;;10.85;94.36;98978.34;4997694;28;19918;-76
2021/12/09 01:57:06;;;;;;;;;;;;;;;10.84;94.67;98978.75;4997620;28;19969;-75
2021/12/09 01:59:31;;;;;;;;;;;;;;;10.87;95.87;98992.69;5015162;28;19922;-76
2021/12/09 02:01:56;;;;;;;;;;;;;;;10.92;95.91;99000.66;4998045;28;19968;-79
2021/12/09 02:04:22;;;;;;;;;;;;;;;10.86;96.13;99010.53;4988834;28;19922;-78
2021/12/09 02:06:47;;;;;;;;;;;;;;;10.85;95.22;99011.75;4978951;28;19918;-78
2021/12/09 02:09:15;;;;;;;;;;;;;;;10.86;95.09;99034.78;4978429;28;20372;-78
2021/12/09 02:11:41;;;;;;;;;;;;;;;10.83;96.02;99016.13;4979046;28;19918;-78
2021/12/09 02:14:07;;;;;;;;;;;;;;;10.92;96.33;99022.91;4978540;28;19925;-75
2021/12/09 02:16:33;;;;;;;;;;;;;;;10.81;92.38;99015.69;4978647;28;19917;-78
2021/12/09 02:18:59;;;;;;;;;;;;;;;10.86;90.32;99013.31;4996406;28;19967;-78
2021/12/09 02:21:30;;;;;;;;;;;;;;;10.82;89.96;99018.09;4979970;28;19921;-78
2021/12/09 02:24:04;;;;;;;;;;;;;;;10.80;88.12;99003.78;4978933;28;20016;-77
2021/12/09 02:26:41;;;;;;;;;;;;;;;10.83;87.28;99007.78;4977933;28;19960;-78
2021/12/09 02:29:07;;;;;;;;;;;;;;;10.77;87.97;99007.38;4996142;28;19918;-78
2021/12/09 02:31:33;;;;;;;;;;;;;;;10.76;87.43;99008.56;4996798;28;19918;-78
2021/12/09 02:33:59;;;;;;;;;;;;;;;10.77;87.43;99012.13;4997600;28;19918;-77
2021/12/09 02:36:25;;;;;;;;;;;;;;;10.74;86.60;99016.47;4980177;28;19917;-77
2021/12/09 02:39:11;;;;;;;;;;;;;;;10.68;87.15;98998.56;4980872;28;20283;-77
2021/12/09 02:41:37;;;;;;;;;;;;;;;10.75;87.40;98987.47;4983278;28;19918;-77
2021/12/09 02:44:05;;;;;;;;;;;;;;;10.66;86.74;98995.41;4978685;28;19925;-78
2021/12/09 02:46:38;;;;;;;;;;;;;;;10.64;86.51;98986.63;4978387;28;19925;-78
2021/12/09 02:49:08;;;;;;;;;;;;;;;10.51;86.98;98990.97;4994872;28;19918;-78
2021/12/09 02:51:34;;;;;;;;;;;;;;;10.55;88.29;99002.91;4977614;28;19973;-79
2021/12/09 02:54:00;;;;;;;;;;;;;;;10.51;87.45;98996.53;4981071;28;19925;-78
2021/12/09 02:56:25;;;;;;;;;;;;;;;10.42;87.75;98989.34;4999621;28;19918;-78
2021/12/09 02:58:57;;;;;;;;;;;;;;;10.48;87.53;98987.78;4981824;28;19918;-78
2021/12/09 03:01:25;;;;;;;;;;;;;;;10.48;87.36;98993.31;4999081;28;19917;-77
2021/12/09 03:03:55;;;;;;;;;;;;;;;10.49;88.20;99000.50;4985860;28;19929;-77
2021/12/09 03:06:40;;;;;;;;;;;;;;;10.48;86.73;98989.75;5001563;28;19939;-77
2021/12/09 03:09:11;;;;;;;;;;;;;;;10.51;87.26;98991.75;5000931;28;20025;-78
2021/12/09 03:11:36;;;;;;;;;;;;;;;10.45;85.76;98999.69;5000813;28;19967;-78
2021/12/09 03:14:03;;;;;;;;;;;;;;;10.42;86.96;99006.03;5001559;28;19917;-77
2021/12/09 03:16:29;;;;;;;;;;;;;;;10.41;87.81;99015.56;5018254;28;19917;-77
2021/12/09 03:18:57;;;;;;;;;;;;;;;10.45;86.63;98999.69;5000741;28;19944;-77
2021/12/09 03:21:36;;;;;;;;;;;;;;;10.42;84.19;99006.03;5001639;28;19987;-78
2021/12/09 03:24:03;;;;;;;;;;;;;;;10.41;81.71;99012.78;5000513;28;19918;-78
2021/12/09 03:26:31;;;;;;;;;;;;;;;10.36;79.03;99007.59;5000926;28;19940;-76
2021/12/09 03:28:58;;;;;;;;;;;;;;;10.42;77.42;99006.03;5018212;28;20368;-75
2021/12/09 03:31:23;;;;;;;;;;;;;;;10.35;76.87;99010.75;5000603;28;19918;-75
2021/12/09 03:33:49;;;;;;;;;;;;;;;10.35;75.80;99005.19;5000335;28;19928;-76
2021/12/09 03:36:14;;;;;;;;;;;;;;;10.23;75.36;99009.91;5018626;28;19917;-75
2021/12/09 03:38:40;;;;;;;;;;;;;;;10.23;75.50;99009.09;5000462;28;19917;-77
2021/12/09 03:41:11;;;;;;;;;;;;;;;10.18;76.57;99023.34;5000402;28;19928;-77
2021/12/09 03:43:37;;;;;;;;;;;;;;;10.15;77.10;99008.22;5000245;28;20360;-77
2021/12/09 03:46:03;;;;;;;;;;;;;;;10.09;78.00;98992.31;5000656;28;19925;-77
2021/12/09 03:48:31;;;;;;;;;;;;;;;10.05;78.84;98992.28;5000930;28;19918;-77
2021/12/09 03:50:57;;;;;;;;;;;;;;;10.04;80.25;98984.34;5001413;28;19925;-77
2021/12/09 03:53:23;;;;;;;;;;;;;;;10.02;80.15;98979.19;5000465;28;19918;-77
2021/12/09 03:56:03;;;;;;;;;;;;;;;9.95;79.84;98982.69;5001083;28;19918;-78
2021/12/09 03:58:29;;;;;;;;;;;;;;;9.91;79.92;98987.47;5000322;28;19917;-78
2021/12/09 04:00:54;;;;;;;;;;;;;;;9.95;80.09;99002.16;5001005;28;19927;-78
2021/12/09 04:03:21;;;;;;;;;;;;;;;9.93;78.28;98987.06;5000456;28;19964;-79
2021/12/09 04:05:47;;;;;;;;;;;;;;;9.98;77.39;98997.81;5018028;28;19925;-78
2021/12/09 04:08:12;;;;;;;;;;;;;;;9.97;76.55;98990.66;5017610;28;19917;-78
2021/12/09 04:10:38;;;;;;;;;;;;;;;9.92;76.97;98988.25;5017735;28;20368;-78
2021/12/09 04:13:04;;;;;;;;;;;;;;;9.98;77.05;98993.06;5018191;28;19987;-77
2021/12/09 04:15:29;;;;;;;;;;;;;;;9.83;77.44;98982.25;5017214;28;20368;-77
2021/12/09 04:17:55;;;;;;;;;;;;;;;9.81;77.94;98992.94;5000117;28;20336;-77
2021/12/09 04:20:21;;;;;;;;;;;;;;;9.70;78.99;98990.88;5018193;28;19976;-78
2021/12/09 04:22:49;;;;;;;;;;;;;;;9.67;79.64;98993.63;5000686;28;20372;-77
2021/12/09 04:25:18;;;;;;;;;;;;;;;9.61;80.50;99007.09;5000626;28;20430;-78
2021/12/09 04:27:44;;;;;;;;;;;;;;;9.59;82.00;99008.66;5001064;28;20225;-78
2021/12/09 04:30:10;;;;;;;;;;;;;;;9.51;82.72;99013.34;5018534;28;19923;-78
2021/12/09 04:32:36;;;;;;;;;;;;;;;9.58;82.80;99013.38;5001583;28;20019;-78
2021/12/09 04:35:01;;;;;;;;;;;;;;;9.39;82.79;99019.19;5000845;28;20020;-78
2021/12/09 04:37:27;;;;;;;;;;;;;;;9.52;83.99;99019.69;5001410;28;19925;-78
2021/12/09 04:39:53;;;;;;;;;;;;;;;9.44;84.88;99025.19;5018353;28;19956;-78
2021/12/09 04:42:18;;;;;;;;;;;;;;;9.39;85.82;99022.75;5000100;28;19917;-78
2021/12/09 04:44:44;;;;;;;;;;;;;;;9.18;87.39;99033.66;5000970;28;19928;-77
2021/12/09 04:47:13;;;;;;;;;;;;;;;9.12;88.70;99041.53;5019006;28;19917;-78
2021/12/09 04:49:38;;;;;;;;;;;;;;;9.02;89.63;99053.31;5000760;28;19925;-79
2021/12/09 04:52:07;;;;;;;;;;;;;;;9.09;90.61;99035.94;5001785;28;19922;-79
2021/12/09 04:54:33;;;;;;;;;;;;;;;8.89;82.59;99018.69;5001510;28;19940;-78
2021/12/09 04:56:58;;;;;;;;;;;;;;;9.14;81.61;99021.72;5018312;28;20352;-77
2021/12/09 04:59:30;;;;;;;;;;;;;;;9.10;82.17;99032.78;4999595;28;20364;-77
2021/12/09 05:01:55;;;;;;;;;;;;;;;9.01;83.12;99026.75;5017512;28;20396;-77
2021/12/09 05:04:21;;;;;;;;;;;;;;;9.00;83.15;99038.22;5000382;28;19964;-77
2021/12/09 05:06:48;;;;;;;;;;;;;;;8.93;83.92;99050.03;5017935;28;19925;-77
2021/12/09 05:09:17;;;;;;;;;;;;;;;8.92;84.78;99065.91;5000647;28;19917;-77
2021/12/09 05:14:08;;;;;;;;;;;;;;;8.98;86.26;99069.13;5019967;28;20000;-78
2021/12/09 05:16:34;;;;;;;;;;;;;;;8.96;86.64;99062.38;5002230;28;19922;-78
2021/12/09 05:19:00;;;;;;;;;;;;;;;8.99;87.14;99053.28;5003996;28;19918;-78
2021/12/09 05:21:30;;;;;;;;;;;;;;;8.97;87.49;99061.19;5004185;28;20368;-77
2021/12/09 05:23:58;;;;;;;;;;;;;;;8.92;87.50;99077.00;5018714;28;19940;-78
2021/12/09 05:26:44;;;;;;;;;;;;;;;8.89;87.83;99077.75;5016511;28;19928;-78
2021/12/09 05:29:10;;;;;;;;;;;;;;;8.83;89.04;99090.34;5016925;28;19967;-77
2021/12/09 05:34:20;;;;;;;;;;;;;;;8.57;91.89;99077.34;5016805;28;19925;-78
2021/12/09 05:36:45;;;;;;;;;;;;;;;8.46;92.64;99078.38;5016090;28;19918;-78
2021/12/09 05:39:11;;;;;;;;;;;;;;;8.46;92.38;99081.94;5016268;28;19992;-78
2021/12/09 05:41:38;;;;;;;;;;;;;;;8.37;92.65;99073.13;4998486;28;19918;-78
2021/12/09 05:44:04;;;;;;;;;;;;;;;8.36;92.27;99071.50;4998165;28;20004;-78
2021/12/09 05:46:29;;;;;;;;;;;;;;;8.32;92.21;99082.53;4998958;28;19922;-77
2021/12/09 05:48:55;;;;;;;;;;;;;;;8.35;92.22;99073.44;4997968;28;19925;-77
2021/12/09 05:51:24;;;;;;;;;;;;;;;8.46;90.08;99075.59;5015058;28;19924;-76
2021/12/09 05:53:50;;;;;;;;;;;;;;;8.37;90.85;99067.59;4998387;28;19925;-76
2021/12/09 05:56:15;;;;;;;;;;;;;;;8.28;91.10;99070.59;4998142;28;19940;-77
2021/12/09 05:58:40;;;;;;;;;;;;;;;8.25;90.99;99079.63;4997737;28;20368;-76
2021/12/09 06:01:06;;;;;;;;;;;;;;;8.17;90.44;99091.00;4997601;28;19917;-76
2021/12/09 06:03:31;;;;;;;;;;;;;;;8.26;88.98;99089.56;4997200;28;19921;-75
2021/12/09 06:05:57;;;;;;;;;;;;;;;8.34;88.71;99088.47;5014647;28;19917;-75
2021/12/09 06:08:22;;;;;;;;;;;;;;;8.24;89.51;99080.81;4997317;28;19924;-75
2021/12/09 06:10:48;;;;;;;;;;;;;;;8.09;90.44;99088.09;4997526;28;19917;-75
2021/12/09 06:13:13;;;;;;;;;;;;;;;7.95;91.30;99079.59;4997816;28;19917;-75
2021/12/09 06:15:39;;;;;;;;;;;;;;;7.87;91.94;99078.66;4997173;28;19921;-75
2021/12/09 06:18:04;;;;;;;;;;;;;;;7.87;92.70;99077.88;4997755;28;19921;-75
2021/12/09 06:20:30;;;;;;;;;;;;;;;7.81;93.23;99059.97;5015154;28;19917;-75
2021/12/09 06:22:55;;;;;;;;;;;;;;;7.94;92.08;99049.50;4997080;28;19925;-75
2021/12/09 06:25:20;;;;;;;;;;;;;;;7.86;91.96;99057.69;4997126;28;19917;-75
2021/12/09 06:27:48;;;;;;;;;;;;;;;7.93;91.66;99031.28;4996784;28;19917;-75
2021/12/09 06:30:14;;;;;;;;;;;;;;;7.92;92.48;99018.59;4997670;28;19924;-75
2021/12/09 06:32:40;;;;;;;;;;;;;;;7.89;92.17;99017.41;4997608;28;19924;-75
2021/12/09 06:35:05;;;;;;;;;;;;;;;7.86;92.58;99015.34;4996953;28;20264;-75
2021/12/09 06:37:31;;;;;;;;;;;;;;;7.84;93.00;99035.13;4996885;28;19979;-75
2021/12/09 06:39:56;;;;;;;;;;;;;;;7.90;92.65;99038.38;4996954;28;19917;-75
2021/12/09 06:42:22;;;;;;;;;;;;;;;7.87;93.00;99058.50;4997368;28;19918;-75
2021/12/09 06:44:47;;;;;;;;;;;;;;;7.92;94.38;99072.03;4997891;28;20320;-75
2021/12/09 06:47:12;;;;;;;;;;;;;;;7.94;94.57;99075.25;4997020;28;19987;-75
2021/12/09 06:49:38;;;;;;;;;;;;;;;7.98;94.99;99058.66;4997563;28;19917;-75
2021/12/09 06:52:04;;;;;;;;;;;;;;;7.80;93.76;99075.00;4997222;28;20607;-76
2021/12/09 06:54:29;;;;;;;;;;;;;;;7.78;93.19;99080.13;4997231;28;20371;-76
2021/12/09 06:56:54;;;;;;;;;;;;;;;7.74;92.31;99090.34;4997353;28;19922;-77
2021/12/09 06:59:26;;;;;;;;;;;;;;;7.72;91.19;99081.59;4997030;28;20360;-77
2021/12/09 07:01:51;;;;;;;;;;;;;;;7.69;91.60;99093.41;4996805;28;19917;-77
2021/12/09 07:04:17;;;;;;;;;;;;;;;7.64;91.31;99091.75;5014143;28;19928;-77
2021/12/09 07:07:20;;;;;;;;;;;;;;;7.65;91.50;99109.16;5094032;27;19966;-77
2021/12/09 07:09:45;;;;;;;;;;;;;;;7.54;90.69;99114.50;5094829;28;19920;-76
2021/12/09 07:12:11;;;;;;;;;;;;;;;7.52;91.26;99106.56;5093349;28;19921;-76
2021/12/09 07:14:36;;;;;;;;;;;;;;;7.47;88.78;99097.78;5095056;28;20411;-76
2021/12/09 07:17:02;;;;;;;;;;;;;;;7.47;89.12;99097.78;5093093;28;19961;-76
2021/12/09 07:19:27;;;;;;;;;;;;;;;7.51;89.43;99077.31;5091703;28;20014;-74
2021/12/09 07:21:53;;;;;;;;;;;;;;;7.43;90.64;99080.31;5091861;28;20378;-76
2021/12/09 07:24:18;;;;;;;;;;;;;;;7.49;91.23;99084.38;5091563;28;19995;-75
2021/12/09 07:26:45;;;;;;;;;;;;;;;7.64;89.91;99077.13;5090487;28;19940;-75
2021/12/09 07:29:11;;;;;;;;;;;;;;;7.75;90.04;99075.31;5124982;28;19927;-76
2021/12/09 07:31:36;;;;;;;;;;;;;;;7.82;89.75;99087.28;5091362;28;19916;-76
2021/12/09 07:34:02;;;;;;;;;;;;;;;7.83;90.40;99094.47;5090472;28;20341;-75
2021/12/09 07:36:27;;;;;;;;;;;;;;;7.88;90.77;99091.38;5091256;28;19916;-75
2021/12/09 07:38:53;;;;;;;;;;;;;;;7.88;91.22;99085.84;5090213;28;20290;-74
2021/12/09 07:41:18;;;;;;;;;;;;;;;7.91;91.98;99083.47;5092130;28;19962;-74
2021/12/09 07:43:45;;;;;;;;;;;;;;;8.00;92.34;99082.06;5090549;28;19916;-74
2021/12/09 07:46:10;;;;;;;;;;;;;;;8.00;92.68;99092.34;5090937;28;19985;-75
2021/12/09 07:48:36;;;;;;;;;;;;;;;8.08;92.57;99094.81;5090818;28;19920;-75
2021/12/09 07:51:01;;;;;;;;;;;;;;;8.01;91.52;99088.41;5090565;28;19916;-75
2021/12/09 07:53:27;;;;;;;;;;;;;;;8.02;90.32;99090.78;5092213;28;20244;-74
2021/12/09 07:55:53;;;;;;;;;;;;;;;7.94;90.09;99091.06;5091559;28;19963;-75
2021/12/09 07:58:19;;;;;;;;;;;;;;;8.05;90.54;99095.59;5093023;28;19916;-76
2021/12/09 08:00:44;;;;;;;;;;;;;;;7.97;89.60;99071.72;5095867;28;20041;-76
2021/12/09 08:03:10;;;;;;;;;;;;;;;7.83;90.29;99066.75;5094351;28;20330;-73
2021/12/09 08:05:37;;;;;;;;;;;;;;;7.76;89.58;99077.72;5089753;28;19921;-76
2021/12/09 08:08:03;;;;;;;;;;;;;;;7.73;91.06;99081.22;5090267;28;19939;-76
2021/12/09 08:10:29;;;;;;;;;;;;;;;7.70;90.82;99068.13;5089997;28;19916;-76
2021/12/09 08:12:54;;;;;;;;;;;;;;;7.65;90.02;99060.13;5089986;28;19916;-75
2021/12/09 08:15:20;;;;;;;;;;;;;;;7.71;89.36;99068.91;5090020;28;20021;-76
2021/12/09 08:20:23;;;;;;;;;;;;;;;7.81;87.33;99080.16;5078925;28;19923;-75
2021/12/09 08:22:49;;;;;;;;;;;;;;;7.80;87.32;99080.53;5078256;28;19955;-75
2021/12/09 08:25:14;;;;;;;;;;;;;;;7.77;86.06;99079.28;5077591;28;19921;-75
2021/12/09 08:27:42;;;;;;;;;;;;;;;7.84;86.04;99087.75;5077971;28;19921;-75
2021/12/09 08:30:09;;;;;;;;;;;;;;;7.94;87.09;99093.84;5078915;28;20276;-75
2021/12/09 08:32:35;;;;;;;;;;;;;;;7.98;87.51;99095.47;5077828;28;19916;-75
2021/12/09 08:35:00;;;;;;;;;;;;;;;7.98;86.81;99095.47;5076557;28;20023;-76
2021/12/09 08:37:25;;;;;;;;;;;;;;;7.98;86.35;99100.19;5077685;28;20005;-76
2021/12/09 08:39:51;;;;;;;;;;;;;;;8.00;87.18;99101.44;5077311;28;20389;-74
2021/12/09 08:42:17;;;;;;;;;;;;;;;7.98;87.28;99108.50;5077622;28;19916;-74
2021/12/09 08:44:43;;;;;;;;;;;;;;;8.05;87.55;99103.91;5075975;28;19999;-74
2021/12/09 08:47:12;;;;;;;;;;;;;;;8.01;87.49;99105.81;5076191;28;19974;-74
2021/12/09 08:49:37;;;;;;;;;;;;;;;8.01;87.22;99105.81;5075802;28;19917;-74
2021/12/09 08:52:03;;;;;;;;;;;;;;;8.06;87.82;99105.50;5076288;28;19924;-76
2021/12/09 08:54:29;;;;;;;;;;;;;;;7.96;86.80;99108.91;5076167;28;20434;-75
2021/12/09 08:56:54;;;;;;;;;;;;;;;8.07;87.42;99120.13;5076821;28;19956;-75
2021/12/09 08:59:21;;;;;;;;;;;;;;;8.23;86.42;99128.31;5075686;28;20363;-75
2021/12/09 09:01:47;;;;;;;;;;;;;;;8.13;85.28;99135.28;5076835;28;19916;-74
2021/12/09 09:04:12;;;;;;;;;;;;;;;8.12;85.80;99137.25;5075761;28;19924;-75
2021/12/09 09:06:48;;;;;;;;;;;;;;;8.09;86.80;99137.19;5074700;28;19927;-74
2021/12/09 09:09:13;;;;;;;;;;;;;;;8.20;87.39;99129.84;5075237;28;19920;-75
2021/12/09 09:11:38;;;;;;;;;;;;;;;8.28;87.44;99148.19;5075743;28;19927;-74
2021/12/09 09:14:04;;;;;;;;;;;;;;;8.12;87.19;99150.31;5075750;28;20355;-74
2021/12/09 09:16:29;;;;;;;;;;;;;;;8.03;86.82;99166.38;5075711;28;20417;-75
2021/12/09 09:18:57;;;;;;;;;;;;;;;7.98;86.96;99161.94;5075517;28;19917;-74
2021/12/09 09:21:23;;;;;;;;;;;;;;;8.06;87.03;99157.34;5075048;28;19921;-74
2021/12/09 09:23:48;;;;;;;;;;;;;;;8.14;86.38;99165.38;5075198;28;19923;-75
2021/12/09 09:26:13;;;;;;;;;;;;;;;7.99;87.72;99163.56;5075990;28;19917;-76
2021/12/09 09:28:39;;;;;;;;;;;;;;;7.84;87.52;99153.41;5074862;28;20332;-77
2021/12/09 09:31:05;;;;;;;;;;;;;;;7.87;87.01;99155.41;5075036;28;19924;-76
2021/12/09 09:33:30;;;;;;;;;;;;;;;7.85;87.78;99175.19;5076423;28;19928;-74
2021/12/09 09:35:56;;;;;;;;;;;;;;;7.87;88.03;99175.59;5075506;28;20260;-75
2021/12/09 09:38:23;;;;;;;;;;;;;;;7.88;88.85;99162.56;5076305;28;19916;-77
2021/12/09 09:40:52;;;;;;;;;;;;;;;7.63;88.52;99130.88;5075539;28;19917;-75
2021/12/09 09:46:21;;;;;;;;;;;;;;;7.63;89.54;99128.91;5075568;28;19916;-74
2021/12/09 09:48:48;;;;;;;;;;;;;;;7.49;90.88;99120.34;5076167;28;19916;-76
2021/12/09 09:51:14;;;;;;;;;;;;;;;7.63;90.90;99123.38;5075768;28;19917;-75
2021/12/09 09:53:41;;;;;;;;;;;;;;;7.64;92.04;99118.63;5074725;28;19943;-74
2021/12/09 09:56:13;;;;;;;;;;;;;;;7.61;91.81;99117.41;5075464;28;19921;-75
2021/12/09 09:58:39;;;;;;;;;;;;;;;7.60;92.05;99115.78;5074543;28;20010;-76
2021/12/09 10:01:05;;;;;;;;;;;;;;;7.69;92.59;99121.91;5076509;28;19944;-76
2021/12/09 10:03:33;;;;;;;;;;;;;;;7.75;93.17;99137.03;5075179;28;19923;-74
2021/12/09 10:06:02;;;;;;;;;;;;;;;7.82;93.56;99159.28;5074166;28;20019;-76
2021/12/09 10:08:30;;;;;;;;;;;;;;;7.94;93.59;99165.84;5076179;28;19916;-75
2021/12/09 10:10:56;;;;;;;;;;;;;;;7.96;93.25;99157.94;5076979;28;19939;-79
2021/12/09 10:13:27;;;;;;;;;;;;;;;7.82;93.16;99147.41;5075250;28;20351;-76
2021/12/09 10:15:52;;;;;;;;;;;;;;;7.74;92.96;99140.97;5076072;28;19916;-76
2021/12/09 10:18:36;;;;;;;;;;;;;;;7.53;91.32;99137.81;5076712;28;19924;-76
2021/12/09 10:21:03;;;;;;;;;;;;;;;7.31;91.36;99120.81;5075935;28;19920;-76
2021/12/09 10:23:30;;;;;;;;;;;;;;;7.15;92.37;99125.66;5077741;28;19959;-78
2021/12/09 10:26:09;;;;;;;;;;;;;;;7.12;93.77;99126.38;5076953;28;19920;-75
2021/12/09 10:28:35;;;;;;;;;;;;;;;7.03;92.73;99106.44;5076152;28;19916;-75
2021/12/09 10:31:09;;;;;;;;;;;;;;;6.88;92.09;99107.34;5076575;28;19920;-76
2021/12/09 10:33:58;;;;;;;;;;;;;;;6.94;92.66;99103.91;5077499;28;20321;-76
2021/12/09 10:36:44;;;;;;;;;;;;;;;6.96;92.84;99111.81;5079726;28;20275;-76
2021/12/09 10:39:18;;;;;;;;;;;;;;;6.85;91.44;99111.63;5079181;28;19992;-75
2021/12/09 10:41:44;;;;;;;;;;;;;;;6.81;90.91;99100.47;5079177;28;19916;-76
2021/12/09 10:44:09;;;;;;;;;;;;;;;6.71;90.94;99090.03;5074486;28;19928;-76
2021/12/09 10:46:50;;;;;;;;;;;;;;;6.70;92.22;99065.47;5074629;28;19923;-76
2021/12/09 10:49:17;;;;;;;;;;;;;;;6.77;92.95;99052.63;5074723;28;20286;-75
2021/12/09 10:51:55;;;;;;;;;;;;;;;6.84;93.87;99049.19;5074616;28;19916;-76
2021/12/09 10:54:34;;;;;;;;;;;;;;;6.91;92.69;99060.38;5074317;28;19920;-75
2021/12/09 10:57:17;;;;;;;;;;;;;;;7.24;90.68;99057.03;5075265;28;19917;-74
2021/12/09 10:59:43;;;;;;;;;;;;;;;7.91;87.43;99056.59;5073922;28;19917;-74
2021/12/09 11:02:09;;;;;;;;;;;;;;;8.36;84.89;99052.94;5073502;28;20011;-76
2021/12/09 11:04:34;;;;;;;;;;;;;;;8.97;83.40;99050.09;5073743;28;19916;-74
2021/12/09 11:07:18;;;;;;;;;;;;;;;8.84;83.11;99055.91;5092190;28;19920;-74
2021/12/09 11:09:43;;;;;;;;;;;;;;;9.33;80.87;99052.06;5076967;28;19998;-75
2021/12/09 11:12:24;;;;;;;;;;;;;;;9.63;80.59;99062.22;5076583;28;20364;-74
2021/12/09 11:14:59;;;;;;;;;;;;;;;9.75;79.30;99061.13;5077259;28;20381;-74
2021/12/09 11:17:35;;;;;;;;;;;;;;;10.11;78.02;99054.66;5076445;28;19923;-74
2021/12/09 11:20:03;;;;;;;;;;;;;;;9.90;77.14;99058.09;5076497;28;20011;-74
2021/12/09 11:22:33;;;;;;;;;;;;;;;9.34;79.58;99070.31;5076679;28;19916;-74
2021/12/09 11:25:03;;;;;;;;;;;;;;;8.99;80.30;99089.34;5076379;28;19956;-75
2021/12/09 11:27:30;;;;;;;;;;;;;;;8.66;80.94;99074.28;5076331;28;19920;-74
2021/12/09 11:30:07;;;;;;;;;;;;;;;8.77;80.75;99089.09;5095097;28;19923;-74
2021/12/09 11:35:11;;;;;;;;;;;;;;;8.88;83.76;99103.09;5094765;28;19922;-74
2021/12/09 11:40:06;;;;;;;;;;;;;;;8.52;83.46;99090.72;5094825;28;19916;-76
2021/12/09 11:42:39;;;;;;;;;;;;;;;8.44;82.99;99072.41;5095306;28;19916;-76
2021/12/09 11:45:08;;;;;;;;;;;;;;;8.32;85.12;99065.09;5077162;28;19916;-74
2021/12/09 11:47:35;;;;;;;;;;;;;;;8.07;84.97;99067.50;5076647;28;19916;-74
2021/12/09 11:50:00;;;;;;;;;;;;;;;7.91;86.53;99055.78;5095300;28;19923;-75
2021/12/09 11:52:25;;;;;;;;;;;;;;;7.69;87.76;99055.44;5077913;28;19916;-76
2021/12/09 11:55:00;;;;;;;;;;;;;;;7.82;88.65;99050.50;5080116;28;19920;-75
2021/12/09 12:11:31;;;;;;;;;;;;;;;7.73;89.50;99052.75;5098045;28;20027;-76
2021/12/09 12:14:15;;;;;;;;;;;;;;;7.61;90.20;99048.19;5080435;28;19916;-77
2021/12/09 12:21:56;;;;;;;;;;;;;;;7.76;90.18;99027.88;5097680;28;20388;-75
2021/12/09 12:27:24;;;;;;;;;;;;;;;7.70;90.67;99028.56;5097601;28;19916;-75
2021/12/09 12:33:04;;;;;;;;;;;;;;;7.67;91.35;99035.66;5098375;28;19916;-77
2021/12/09 12:41:02;;;;;;;;;;;;;;;7.34;93.05;99014.94;5098200;28;20260;-76
2021/12/09 12:43:36;;;;;;;;;;;;;;;7.30;93.45;99019.63;5067218;28;19916;-75
2021/12/09 12:46:22;;;;;;;;;;;;;;;7.22;93.86;99009.59;5097969;28;19916;-75
2021/12/09 12:52:06;;;;;;;;;;;;;;;7.14;92.94;99001.53;5097133;28;19916;-74
2021/12/09 12:54:03;;;;;;;;;;;;;;;7.12;94.67;99007.44;5086875;28;19916;-75
2021/12/09 12:56:38;;;;;;;;;;;;;;;7.21;96.33;99035.66;5079158;28;19916;-77
2021/12/09 12:59:04;;;;;;;;;;;;;;;7.22;96.51;99044.75;5098294;28;19916;-78
2021/12/09 13:01:30;;;;;;;;;;;;;;;7.00;96.44;99049.91;5100325;28;19942;-77
2021/12/09 13:04:03;;;;;;;;;;;;;;;6.84;94.90;99054.72;5082766;28;19916;-75
2021/12/09 13:06:40;;;;;;;;;;;;;;;6.77;93.50;99041.56;5078409;28;19920;-76
2021/12/09 13:09:36;;;;;;;;;;;;;;;6.93;93.06;99035.16;5079038;28;19916;-76
2021/12/09 13:12:06;;;;;;;;;;;;;;;7.09;93.22;99041.38;5077882;28;19916;-76
2021/12/09 13:14:35;;;;;;;;;;;;;;;7.12;91.01;99053.66;5077798;28;19946;-74
2021/12/09 13:22:00;;;;;;;;;;;;;;;7.38;89.05;99028.03;5080623;28;19916;-77
2021/12/09 13:27:18;;;;;;;;;;;;;;;7.60;88.73;99049.34;5077676;28;19917;-76
2021/12/09 13:33:06;;;;;;;;;;;;;;;7.35;87.22;99060.81;5073292;28;19916;-81
2021/12/09 13:46:58;;;;;;;;;;;;;;;7.81;86.96;99046.94;5076159;28;19924;-74
2021/12/09 13:49:05;;;;;;;;;;;;;;;7.82;86.65;99054.06;5071705;28;20007;-76
2021/12/09 13:54:26;;;;;;;;;;;;;;;7.76;88.21;99076.91;5076921;28;20007;-75
2021/12/09 13:56:55;;;;;;;;;;;;;;;7.58;87.68;99071.09;5074745;28;19924;-75
2021/12/09 13:59:22;;;;;;;;;;;;;;;7.45;88.25;99056.63;5075045;28;20019;-75
2021/12/09 14:01:48;;;;;;;;;;;;;;;7.47;89.05;99075.63;5074599;28;19962;-77
2021/12/09 14:04:17;;;;;;;;;;;;;;;7.55;89.37;99067.06;5076002;28;19952;-76
2021/12/09 14:07:28;;;;;;;;;;;;;;;7.42;88.01;99078.72;5073886;28;19920;-76
2021/12/09 14:09:57;;;;;;;;;;;;;;;7.49;88.37;99074.09;5074485;28;19966;-77